createdAt,value
2024-05-09T00:03:44.294Z,16.11
2024-05-09T00:08:47.148Z,16.06
2024-05-09T00:13:49.532Z,15.98
2024-05-09T00:18:51.830Z,15.92
2024-05-09T00:23:54.298Z,15.84
2024-05-09T00:28:56.565Z,15.81
2024-05-09T00:33:58.922Z,15.75
2024-05-09T00:39:01.415Z,15.76
2024-05-09T00:44:04.642Z,15.73
2024-05-09T00:49:07.485Z,15.66
2024-05-09T00:54:10.913Z,15.56
2024-05-09T00:59:13.446Z,15.48
2024-05-09T01:04:15.781Z,15.39
2024-05-09T01:09:18.305Z,15.31
2024-05-09T01:14:20.717Z,15.25
2024-05-09T01:19:32.017Z,15.16
2024-05-09T01:24:34.403Z,15.08
2024-05-09T01:29:36.596Z,14.98
2024-05-09T01:34:38.856Z,14.96
2024-05-09T01:39:41.217Z,14.94
2024-05-09T01:44:43.757Z,14.90
2024-05-09T01:49:46.084Z,14.81
2024-05-09T01:54:48.299Z,14.80
2024-05-09T01:59:50.652Z,14.76
2024-05-09T02:04:54.570Z,14.74
2024-05-09T02:09:56.981Z,14.69
2024-05-09T02:14:59.352Z,14.66
2024-05-09T02:20:01.671Z,14.67
2024-05-09T02:25:04.025Z,14.64
2024-05-09T02:30:15.196Z,14.63
2024-05-09T02:35:25.179Z,14.59
2024-05-09T02:40:35.781Z,14.56
2024-05-09T02:45:40.797Z,14.51
2024-05-09T02:50:44.932Z,14.47
2024-05-09T02:55:47.514Z,14.45
2024-05-09T03:00:50.059Z,14.41
2024-05-09T03:05:52.464Z,14.37
2024-05-09T03:10:54.952Z,14.34
2024-05-09T03:16:00.019Z,14.33
2024-05-09T03:21:03.602Z,14.22
2024-05-09T03:26:11.256Z,14.19
2024-05-09T03:31:13.596Z,14.15
2024-05-09T03:36:15.890Z,14.13
2024-05-09T03:41:21.407Z,14.04
2024-05-09T03:46:23.928Z,13.92
2024-05-09T03:51:26.220Z,13.85
2024-05-09T03:56:28.558Z,13.77
2024-05-09T04:01:30.878Z,13.77
2024-05-09T04:06:33.987Z,13.69
2024-05-09T04:11:36.560Z,13.54
2024-05-09T04:16:39.024Z,13.55
2024-05-09T04:21:41.527Z,13.51
2024-05-09T04:26:44.180Z,13.42
2024-05-09T04:31:46.656Z,13.41
2024-05-09T04:36:50.167Z,13.36
2024-05-09T04:41:52.305Z,13.32
2024-05-09T04:46:54.686Z,13.13
2024-05-09T04:51:56.987Z,13.17
2024-05-09T04:56:59.011Z,13.18
2024-05-09T05:02:02.634Z,13.14
2024-05-09T05:07:05.311Z,13.11
2024-05-09T05:12:28.279Z,13.11
2024-05-09T05:17:30.746Z,13.14
2024-05-09T05:22:33.315Z,13.16
2024-05-09T05:27:35.479Z,13.22
2024-05-09T05:32:37.889Z,13.21
2024-05-09T05:37:40.317Z,13.24
2024-05-09T05:42:42.933Z,13.25
2024-05-09T05:47:45.528Z,13.27
2024-05-09T05:52:48.068Z,13.29
2024-05-09T05:57:50.455Z,13.30
2024-05-09T06:02:53.291Z,13.32
2024-05-09T06:07:55.984Z,13.32
2024-05-09T06:12:58.300Z,13.32
2024-05-09T06:18:01.051Z,13.40
2024-05-09T06:23:04.106Z,13.48
2024-05-09T06:28:06.817Z,13.55
2024-05-09T06:33:11.796Z,13.63
2024-05-09T06:38:15.920Z,13.67
2024-05-09T06:43:19.555Z,13.72
2024-05-09T06:48:22.933Z,13.77
2024-05-09T06:53:28.399Z,13.92
2024-05-09T06:58:30.961Z,13.97
2024-05-09T07:03:33.410Z,14.07
2024-05-09T07:08:37.045Z,14.13
2024-05-09T07:13:39.225Z,14.18
2024-05-09T07:18:41.847Z,14.30
2024-05-09T07:23:46.861Z,14.44
2024-05-09T07:28:49.754Z,14.58
2024-05-09T07:33:52.635Z,14.91
2024-05-09T07:38:55.073Z,15.13
2024-05-09T07:43:57.731Z,15.31
2024-05-09T07:50:35.820Z,15.63
2024-05-09T07:54:23.277Z,15.81
2024-05-09T07:59:25.610Z,16.00
2024-05-09T08:04:28.215Z,16.24
2024-05-09T08:09:30.785Z,16.59
2024-05-09T08:14:33.920Z,16.82
2024-05-09T08:19:37.866Z,17.29
2024-05-09T08:24:40.411Z,17.72
2024-05-09T08:29:43.740Z,18.04
2024-05-09T08:34:46.059Z,18.52
2024-05-09T08:39:48.372Z,19.20
2024-05-09T08:44:52.640Z,19.69
2024-05-09T08:49:58.675Z,20.23
2024-05-09T08:55:01.537Z,20.71
2024-05-09T09:00:10.027Z,21.33
2024-05-09T09:05:17.523Z,22.03
2024-05-09T09:10:29.271Z,22.62
2024-05-09T09:15:34.497Z,23.16
2024-05-09T09:20:38.114Z,23.97
2024-05-09T09:25:41.039Z,24.30
2024-05-09T09:30:43.587Z,25.10
2024-05-09T09:35:46.556Z,25.16
2024-05-09T09:40:50.304Z,25.13
2024-05-09T09:45:55.660Z,25.27
2024-05-09T09:50:58.518Z,25.60
2024-05-09T09:56:02.359Z,25.99
2024-05-09T10:01:05.106Z,25.74
2024-05-09T10:06:08.084Z,26.03
2024-05-09T10:11:10.613Z,26.47
2024-05-09T10:16:13.340Z,25.96
2024-05-09T10:21:20.175Z,26.28
2024-05-09T10:26:29.952Z,27.03
2024-05-09T10:31:33.261Z,26.98
2024-05-09T10:36:42.029Z,27.44
2024-05-09T10:41:44.317Z,27.48
2024-05-09T10:46:47.033Z,27.76
2024-05-09T10:51:50.644Z,27.97
2024-05-09T10:56:57.906Z,27.93
2024-05-09T11:02:04.086Z,27.72
2024-05-09T11:07:14.702Z,27.75
2024-05-09T11:12:19.983Z,27.43
2024-05-09T11:17:23.823Z,27.40
2024-05-09T11:22:32.399Z,27.41
2024-05-09T11:27:34.684Z,27.37
2024-05-09T11:32:37.971Z,27.63
2024-05-09T11:37:42.967Z,27.89
2024-05-09T11:42:49.951Z,27.40
2024-05-09T11:47:54.312Z,27.06
2024-05-09T11:52:57.279Z,26.68
2024-05-09T11:57:59.990Z,26.45
2024-05-09T12:03:05.360Z,26.52
2024-05-09T12:08:08.647Z,26.31
2024-05-09T12:13:11.246Z,26.09
2024-05-09T12:18:14.484Z,25.78
2024-05-09T12:23:16.862Z,26.00
2024-05-09T12:28:19.529Z,25.83
2024-05-09T12:33:22.150Z,25.73
2024-05-09T12:38:24.469Z,25.79
2024-05-09T12:43:26.848Z,25.76
2024-05-09T12:48:30.012Z,25.82
2024-05-09T12:53:32.514Z,25.69
2024-05-09T12:58:34.884Z,25.65
2024-05-09T13:03:41.218Z,25.62
2024-05-09T13:08:44.345Z,25.64
2024-05-09T13:13:46.532Z,25.52
2024-05-09T13:18:49.232Z,25.49
2024-05-09T13:23:52.853Z,25.54
2024-05-09T13:28:55.362Z,25.56
2024-05-09T13:33:57.958Z,25.57
2024-05-09T13:39:00.924Z,25.64
2024-05-09T13:44:03.602Z,25.64
2024-05-09T13:49:07.136Z,25.37
2024-05-09T13:54:11.231Z,25.22
2024-05-09T13:59:13.627Z,25.33
2024-05-09T14:04:16.235Z,25.59
2024-05-09T14:09:18.720Z,25.66
2024-05-09T14:14:21.969Z,25.57
2024-05-09T14:19:24.342Z,25.63
2024-05-09T14:24:26.900Z,25.71
2024-05-09T14:29:29.505Z,25.74
2024-05-09T14:34:31.951Z,25.79
2024-05-09T14:39:34.206Z,25.70
2024-05-09T14:44:36.692Z,25.58
2024-05-09T14:49:39.707Z,25.52
2024-05-09T14:54:42.705Z,25.57
2024-05-09T14:59:45.110Z,25.48
2024-05-09T15:04:47.946Z,25.57
2024-05-09T15:09:50.603Z,25.50
2024-05-09T15:14:53.388Z,25.41
2024-05-09T15:19:55.882Z,25.35
2024-05-09T15:24:58.518Z,25.41
2024-05-09T15:30:05.596Z,25.50
2024-05-09T15:35:10.694Z,25.75
2024-05-09T15:40:18.500Z,25.86
2024-05-09T15:45:29.416Z,25.87
2024-05-09T15:50:37.766Z,25.80
2024-05-09T15:55:43.440Z,26.04
2024-05-09T16:08:43.544Z,25.91
2024-05-09T16:13:46.611Z,25.77
2024-05-09T16:18:49.003Z,25.67
2024-05-09T16:23:51.488Z,25.44
2024-05-09T16:28:53.981Z,25.38
2024-05-09T16:33:56.186Z,25.28
2024-05-09T16:38:58.506Z,25.29
2024-05-09T16:44:03.038Z,25.35
2024-05-09T16:49:05.972Z,25.30
2024-05-09T16:54:08.452Z,25.19
2024-05-09T16:59:11.195Z,25.02
2024-05-09T17:04:13.763Z,24.92
2024-05-09T17:09:19.662Z,24.91
2024-05-09T17:14:22.358Z,24.90
2024-05-09T17:19:24.862Z,24.85
2024-05-09T17:24:27.309Z,24.83
2024-05-09T17:29:30.048Z,24.86
2024-05-09T17:34:32.380Z,24.79
2024-05-09T17:39:34.648Z,24.63
2024-05-09T17:44:37.024Z,24.51
2024-05-09T17:49:39.344Z,24.31
2024-05-09T17:54:41.699Z,24.32
2024-05-09T17:59:44.029Z,24.27
2024-05-09T18:04:46.602Z,24.27
2024-05-09T18:09:48.994Z,24.16
2024-05-09T18:14:54.191Z,24.01
2024-05-09T18:19:56.820Z,23.86
2024-05-09T18:24:59.237Z,23.75
2024-05-09T18:30:01.832Z,23.61
2024-05-09T18:35:04.513Z,23.44
2024-05-09T18:40:11.729Z,23.30
2024-05-09T18:45:14.436Z,23.09
2024-05-09T18:50:28.418Z,22.90
2024-05-09T18:55:37.869Z,22.80
2024-05-09T19:00:43.017Z,22.77
2024-05-09T19:05:47.785Z,22.70
2024-05-09T19:10:53.503Z,22.58
2024-05-09T19:15:56.892Z,22.44
2024-05-09T19:21:00.048Z,22.40
2024-05-09T19:26:04.128Z,22.31
2024-05-09T19:31:06.598Z,22.18
2024-05-09T19:36:09.319Z,22.07
2024-05-09T19:41:12.162Z,22.05
2024-05-09T19:46:14.708Z,22.01
2024-05-09T19:51:16.953Z,21.95
2024-05-09T19:56:19.184Z,21.90
2024-05-09T20:01:21.623Z,21.93
2024-05-09T20:06:26.356Z,21.77
2024-05-09T20:11:28.704Z,21.74
2024-05-09T20:16:31.125Z,21.70
2024-05-09T20:21:33.474Z,21.57
2024-05-09T20:26:35.840Z,21.46
2024-05-09T20:31:39.051Z,21.41
2024-05-09T20:36:41.214Z,21.29
2024-05-09T20:41:44.053Z,21.19
2024-05-09T20:46:46.259Z,21.01
2024-05-09T20:51:48.944Z,20.85
2024-05-09T20:56:51.301Z,20.81
2024-05-09T21:01:53.663Z,20.74
2024-05-09T21:06:56.253Z,20.65
2024-05-09T21:11:58.460Z,20.46
2024-05-09T21:17:00.955Z,20.42
2024-05-09T21:22:03.248Z,20.32
2024-05-09T21:27:05.743Z,20.20
2024-05-09T21:32:08.437Z,20.10
2024-05-09T21:37:11.037Z,20.03
2024-05-09T21:42:13.462Z,19.91
2024-05-09T21:47:15.729Z,19.89
2024-05-09T21:52:19.543Z,19.87
2024-05-09T21:57:22.365Z,19.81
2024-05-09T22:02:25.035Z,19.78
2024-05-09T22:07:27.342Z,19.70
2024-05-09T22:12:29.718Z,19.58
2024-05-09T22:17:33.480Z,19.56
2024-05-09T22:22:36.150Z,19.46
2024-05-09T22:27:38.714Z,19.35
2024-05-09T22:32:41.232Z,19.30
2024-05-09T22:37:43.655Z,19.27
2024-05-09T22:42:46.058Z,19.20
2024-05-09T22:47:48.415Z,19.16
2024-05-09T22:52:50.658Z,19.08
2024-05-09T22:57:53.031Z,19.17
2024-05-09T23:02:55.318Z,18.96
2024-05-09T23:07:57.718Z,18.99
2024-05-09T23:13:00.079Z,18.91
2024-05-09T23:18:02.681Z,18.80
2024-05-09T23:23:06.030Z,18.55
2024-05-09T23:28:08.603Z,18.05
2024-05-09T23:33:12.893Z,18.07
2024-05-09T23:38:16.005Z,18.11
2024-05-09T23:43:19.166Z,18.17
2024-05-09T23:48:21.571Z,18.18
2024-05-09T23:53:24.012Z,18.15
2024-05-09T23:58:29.685Z,18.10
